Time;durP1;ratioP1;P1;durP2;ratioP2;P2;SDS_P1;SDS_P2;PMS_P1;PMS_P2;Temp;Humidity;BMP_temperature;BMP_pressure;BME280_temperature;BME280_humidity;BME280_pressure;Samples;Min_cycle;Max_cycle;Signal;HPM_P1;HPM_P2
2023/12/09 00:02:18;;;;;;;9.53;3.20;;;;;;;7.23;78.99;100377.81;5049598;28;20538;-81
2023/12/09 00:04:44;;;;;;;10.03;3.00;;;;;;;7.17;78.64;100382.13;5049210;28;20290;-80
2023/12/09 00:07:09;;;;;;;10.37;3.03;;;;;;;7.14;78.60;100381.22;5049452;28;20028;-79
2023/12/09 00:09:34;;;;;;;11.53;3.03;;;;;;;7.08;78.55;100374.16;5049716;28;20517;-80
2023/12/09 00:12:00;;;;;;;10.43;3.03;;;;;;;7.06;78.53;100373.25;5049879;28;20021;-80
2023/12/09 00:14:25;;;;;;;11.07;3.00;;;;;;;7.03;79.01;100371.50;5049190;28;20028;-80
2023/12/09 00:16:51;;;;;;;9.30;2.63;;;;;;;6.98;78.18;100356.59;5049502;28;20529;-88
2023/12/09 00:19:16;;;;;;;7.47;2.37;;;;;;;6.95;78.85;100364.41;5049633;28;20037;-81
2023/12/09 00:21:41;;;;;;;9.43;2.90;;;;;;;6.94;78.76;100349.56;5049068;28;20108;-83
2023/12/09 00:24:07;;;;;;;9.13;2.87;;;;;;;6.89;78.91;100342.53;5049633;28;20031;-82
2023/12/09 00:26:32;;;;;;;10.95;3.25;;;;;;;6.85;78.53;100343.34;5048392;28;20057;-82
2023/12/09 00:28:58;;;;;;;11.40;3.60;;;;;;;6.81;78.77;100330.22;5046988;28;20033;-82
2023/12/09 00:31:24;;;;;;;10.20;3.70;;;;;;;6.76;78.89;100338.00;5049596;28;20052;-79
2023/12/09 00:33:49;;;;;;;11.95;3.75;;;;;;;6.73;78.32;100330.97;5049321;28;20505;-82
2023/12/09 00:36:14;;;;;;;14.50;4.20;;;;;;;6.69;78.70;100330.94;5049276;28;20025;-83
2023/12/09 00:38:40;;;;;;;11.63;4.63;;;;;;;6.67;78.73;100337.88;5049594;28;20029;-81
2023/12/09 00:41:05;;;;;;;15.77;4.80;;;;;;;6.64;79.14;100327.38;5049593;28;20031;-82
2023/12/09 00:43:30;;;;;;;18.03;5.77;;;;;;;6.59;78.80;100320.31;5049059;28;20029;-81
2023/12/09 00:45:56;;;;;;;14.60;5.45;;;;;;;6.56;78.62;100328.13;5032469;28;20068;-82
2023/12/09 00:48:22;;;;;;;14.30;5.40;;;;;;;6.55;78.75;100336.84;5029596;28;20064;-81
2023/12/09 00:50:47;;;;;;;12.93;5.40;;;;;;;6.54;78.55;100336.84;5037210;28;20024;-82
2023/12/09 00:53:12;;;;;;;14.93;5.93;;;;;;;6.52;78.53;100343.78;5049266;28;20036;-81
2023/12/09 00:55:38;;;;;;;14.80;5.43;;;;;;;6.52;78.80;100341.19;5064867;28;20112;-81
2023/12/09 00:58:03;;;;;;;11.57;4.37;;;;;;;6.52;78.75;100339.44;5049182;28;20110;-81
2023/12/09 01:00:29;;;;;;;14.33;4.63;;;;;;;6.52;78.66;100331.56;5048577;28;20025;-81
2023/12/09 01:02:54;;;;;;;12.87;3.90;;;;;;;6.51;78.81;100331.53;5049052;28;20096;-83
2023/12/09 01:05:19;;;;;;;11.90;3.63;;;;;;;6.52;78.70;100330.72;5049028;28;20028;-80
2023/12/09 01:07:45;;;;;;;11.17;3.30;;;;;;;6.53;78.50;100337.72;5049241;28;20098;-80
2023/12/09 01:10:12;;;;;;;12.47;3.17;;;;;;;6.51;78.76;100340.28;5048551;28;20029;-77
2023/12/09 01:12:37;;;;;;;11.13;3.45;;;;;;;6.49;78.64;100338.50;5048476;28;20028;-81
2023/12/09 01:15:03;;;;;;;11.07;3.03;;;;;;;6.46;78.21;100334.97;5048591;28;20029;-81
2023/12/09 01:17:28;;;;;;;11.23;2.90;;;;;;;6.44;78.99;100331.47;5047771;28;20040;-81
2023/12/09 01:19:54;;;;;;;8.53;2.77;;;;;;;6.42;78.18;100332.31;5048108;28;20036;-80
2023/12/09 01:22:20;;;;;;;14.77;2.92;;;;;;;6.40;78.59;100323.56;5048854;28;20032;-80
2023/12/09 01:24:45;;;;;;;10.63;2.77;;;;;;;6.38;78.92;100327.88;5043429;28;20039;-81
2023/12/09 01:27:10;;;;;;;9.50;2.40;;;;;;;6.38;78.59;100323.53;5049065;28;20588;-81
2023/12/09 01:29:36;;;;;;;11.93;3.28;;;;;;;6.39;78.70;100327.03;5048649;28;20025;-81
2023/12/09 01:32:02;;;;;;;9.60;2.83;;;;;;;6.38;79.00;100330.50;5048870;28;20029;-80
2023/12/09 01:34:27;;;;;;;11.33;2.77;;;;;;;6.39;78.77;100321.78;5048478;28;20477;-80
2023/12/09 01:36:54;;;;;;;10.40;2.53;;;;;;;6.38;78.46;100325.25;5048669;28;20393;-81
2023/12/09 01:39:19;;;;;;;10.27;2.60;;;;;;;6.37;78.92;100323.50;5048954;28;20059;-81
2023/12/09 01:41:44;;;;;;;7.88;2.40;;;;;;;6.36;78.53;100326.97;5036752;28;20057;-80
2023/12/09 01:44:10;;;;;;;14.33;2.77;;;;;;;6.34;78.84;100329.59;5028461;28;20030;-80
2023/12/09 01:46:36;;;;;;;8.57;2.30;;;;;;;6.35;79.17;100325.22;5033241;28;20025;-81
2023/12/09 01:49:02;;;;;;;9.43;2.40;;;;;;;6.34;79.19;100333.94;5048664;28;20021;-81
2023/12/09 01:51:28;;;;;;;8.60;2.40;;;;;;;6.31;78.84;100319.94;5048505;28;20144;-81
2023/12/09 01:53:54;;;;;;;11.63;2.30;;;;;;;6.30;78.46;100327.78;5051481;28;20150;-81
2023/12/09 01:56:21;;;;;;;9.05;2.30;;;;;;;6.29;79.25;100334.75;5052285;28;20489;-80
2023/12/09 01:58:47;;;;;;;11.75;2.67;;;;;;;6.26;78.55;100329.47;5051896;28;20117;-80
2023/12/09 02:01:13;;;;;;;9.93;2.40;;;;;;;6.23;78.68;100318.09;5051911;28;20112;-80
2023/12/09 02:03:39;;;;;;;9.90;2.67;;;;;;;6.22;79.41;100319.84;5051802;28;20040;-80
2023/12/09 02:06:04;;;;;;;10.87;2.63;;;;;;;6.23;78.75;100321.59;5052120;28;20041;-80
2023/12/09 02:08:30;;;;;;;9.20;2.58;;;;;;;6.22;78.40;100314.59;5052045;28;20021;-80
2023/12/09 02:11:08;;;;;;;11.27;2.93;;;;;;;6.26;79.08;100318.13;5051759;28;20056;-80
2023/12/09 02:13:46;;;;;;;15.77;2.47;;;;;;;6.24;78.67;100318.13;5051493;28;20025;-80
2023/12/09 02:16:17;;;;;;;9.13;2.67;;;;;;;6.24;78.87;100312.88;5031807;28;20028;-80
2023/12/09 02:18:44;;;;;;;9.65;2.47;;;;;;;6.26;79.62;100311.16;5031589;28;20086;-80
2023/12/09 02:21:09;;;;;;;11.33;2.30;;;;;;;6.25;79.24;100309.41;5039138;28;20025;-81
2023/12/09 02:23:35;;;;;;;11.48;2.72;;;;;;;6.25;79.35;100303.28;5050900;28;20024;-80
2023/12/09 02:26:07;;;;;;;8.23;2.43;;;;;;;6.25;78.65;100288.50;5041365;28;20199;-80
2023/12/09 02:28:38;;;;;;;8.10;2.42;;;;;;;6.24;78.64;100285.84;5051573;28;20028;-80
2023/12/09 02:31:13;;;;;;;13.05;2.95;;;;;;;6.23;79.10;100284.97;5051539;28;20029;-80
2023/12/09 02:33:43;;;;;;;9.27;2.60;;;;;;;6.21;79.10;100276.25;5051480;28;20400;-81
2023/12/09 02:36:10;;;;;;;7.38;2.33;;;;;;;6.20;78.89;100279.72;5051381;28;20024;-81
2023/12/09 02:38:39;;;;;;;13.65;2.85;;;;;;;6.17;79.33;100284.91;5034362;28;20053;-80
2023/12/09 02:41:09;;;;;;;10.65;3.13;;;;;;;6.16;79.32;100289.25;5031340;28;20021;-81
2023/12/09 02:43:35;;;;;;;13.10;2.92;;;;;;;6.15;78.75;100292.72;5041457;28;20106;-80
2023/12/09 02:46:00;;;;;;;8.23;2.70;;;;;;;6.12;78.37;100294.38;5051189;28;20512;-80
2023/12/09 02:48:26;;;;;;;10.90;3.07;;;;;;;6.08;79.45;100298.72;5051400;28;20222;-80
2023/12/09 02:50:51;;;;;;;13.57;3.53;;;;;;;6.06;79.56;100296.91;5051284;28;20735;-80
2023/12/09 02:53:16;;;;;;;15.00;3.80;;;;;;;6.03;79.18;100301.25;5050966;28;20041;-80
2023/12/09 02:55:42;;;;;;;11.87;3.60;;;;;;;6.00;79.70;100293.34;5051004;28;20033;-81
2023/12/09 02:58:07;;;;;;;10.17;3.30;;;;;;;6.01;78.64;100281.16;5050978;28;20049;-80
2023/12/09 03:00:33;;;;;;;11.75;3.83;;;;;;;6.00;79.21;100275.03;5050355;28;20033;-81
2023/12/09 03:02:58;;;;;;;13.03;4.30;;;;;;;5.99;79.59;100260.22;5050308;28;20127;-80
2023/12/09 03:05:24;;;;;;;13.33;3.33;;;;;;;5.99;79.63;100262.81;5050853;28;20477;-80
2023/12/09 03:07:49;;;;;;;12.63;3.47;;;;;;;5.98;79.52;100265.41;5050877;28;20037;-80
2023/12/09 03:10:14;;;;;;;15.20;3.03;;;;;;;5.98;79.73;100279.38;5049356;28;20048;-80
2023/12/09 03:12:40;;;;;;;8.80;2.90;;;;;;;5.99;79.62;100275.00;5050851;28;20040;-80
2023/12/09 03:15:06;;;;;;;12.87;3.10;;;;;;;6.00;79.87;100267.19;5050479;28;20025;-80
2023/12/09 03:17:33;;;;;;;12.68;3.05;;;;;;;5.99;79.07;100254.97;5048131;28;20420;-80
2023/12/09 03:19:58;;;;;;;9.17;3.03;;;;;;;6.00;79.24;100250.63;5050378;28;20392;-80
2023/12/09 03:22:24;;;;;;;8.38;2.85;;;;;;;6.00;79.47;100251.50;5050605;28;20100;-80
2023/12/09 03:24:49;;;;;;;9.77;3.03;;;;;;;6.00;78.77;100248.91;5039495;28;20505;-80
2023/12/09 03:27:14;;;;;;;10.93;2.83;;;;;;;6.00;78.99;100242.78;5050276;28;20104;-80
2023/12/09 03:29:40;;;;;;;9.80;3.13;;;;;;;5.99;79.16;100246.25;5049946;28;20028;-80
2023/12/09 03:32:06;;;;;;;12.30;2.80;;;;;;;5.95;79.66;100232.28;5050352;28;20100;-80
2023/12/09 03:34:31;;;;;;;10.77;2.83;;;;;;;5.94;78.88;100234.84;5034779;28;20029;-80
2023/12/09 03:36:57;;;;;;;11.20;3.03;;;;;;;5.91;79.50;100238.31;5029979;28;20036;-80
2023/12/09 03:39:23;;;;;;;13.77;2.80;;;;;;;5.91;79.00;100243.53;5036737;28;20033;-81
2023/12/09 03:41:49;;;;;;;8.88;2.50;;;;;;;5.90;79.23;100246.97;5050294;28;20047;-80
2023/12/09 03:44:14;;;;;;;10.63;2.70;;;;;;;5.90;79.36;100244.38;5049956;28;20504;-81
2023/12/09 03:46:40;;;;;;;8.47;2.53;;;;;;;5.89;79.56;100247.84;5050012;28;20509;-80
2023/12/09 03:49:05;;;;;;;8.00;2.25;;;;;;;5.86;79.45;100239.97;5050283;28;20079;-80
2023/12/09 03:51:31;;;;;;;10.53;2.83;;;;;;;5.83;79.39;100243.44;5050347;28;20060;-81
2023/12/09 03:53:56;;;;;;;8.60;2.43;;;;;;;5.83;79.12;100250.38;5049581;28;20079;-80
2023/12/09 03:56:21;;;;;;;8.05;2.58;;;;;;;5.80;79.17;100242.50;5049994;28;20017;-80
2023/12/09 03:58:48;;;;;;;11.50;3.00;;;;;;;5.80;79.62;100247.72;5049535;28;20079;-80
2023/12/09 04:01:13;;;;;;;11.10;2.65;;;;;;;5.79;79.52;100241.63;5049854;28;20028;-80
2023/12/09 04:03:39;;;;;;;7.20;1.97;;;;;;;5.77;78.81;100242.44;5049801;28;20111;-80
2023/12/09 04:06:05;;;;;;;8.13;2.73;;;;;;;5.74;79.10;100236.31;5050092;28;20029;-80
2023/12/09 04:08:31;;;;;;;9.73;2.30;;;;;;;5.74;79.32;100249.38;5049761;28;20531;-80
2023/12/09 04:10:56;;;;;;;6.18;2.10;;;;;;;5.72;79.15;100248.50;5049534;28;20033;-80
2023/12/09 04:13:21;;;;;;;10.77;2.50;;;;;;;5.70;79.10;100246.69;5046931;28;20029;-80
2023/12/09 04:15:47;;;;;;;7.67;2.97;;;;;;;5.69;78.60;100251.06;5048604;28;20029;-80
2023/12/09 04:18:13;;;;;;;14.65;2.95;;;;;;;5.68;79.75;100243.19;5049712;28;20491;-81
2023/12/09 04:20:38;;;;;;;8.57;2.83;;;;;;;5.65;78.73;100233.56;5049278;28;20032;-81
2023/12/09 04:23:04;;;;;;;7.10;2.70;;;;;;;5.62;79.45;100222.19;5049472;28;20021;-82
2023/12/09 04:25:30;;;;;;;10.83;2.40;;;;;;;5.58;79.32;100213.41;5049009;28;20045;-82
2023/12/09 04:27:56;;;;;;;9.20;2.63;;;;;;;5.56;79.20;100218.63;5049601;28;20075;-82
2023/12/09 04:30:24;;;;;;;7.27;2.13;;;;;;;5.56;79.35;100228.19;5037086;28;20017;-82
2023/12/09 04:32:49;;;;;;;8.55;2.30;;;;;;;5.56;78.94;100229.09;5029703;28;20021;-82
2023/12/09 04:35:15;;;;;;;8.43;2.10;;;;;;;5.56;79.64;100207.28;5033033;28;20029;-82
2023/12/09 04:37:41;;;;;;;7.15;2.15;;;;;;;5.55;79.52;100210.75;5048876;28;20033;-82
2023/12/09 04:40:13;;;;;;;9.77;2.63;;;;;;;5.54;79.04;100204.66;5049261;28;20508;-80
2023/12/09 04:42:39;;;;;;;6.13;1.80;;;;;;;5.55;78.91;100200.31;5049206;28;20025;-81
2023/12/09 04:45:06;;;;;;;8.65;1.88;;;;;;;5.56;78.88;100209.91;5049194;28;20112;-81
2023/12/09 04:47:32;;;;;;;8.30;2.03;;;;;;;5.57;78.94;100216.88;5049099;28;20021;-81
2023/12/09 04:49:58;;;;;;;7.65;1.90;;;;;;;5.58;79.35;100230.00;5049328;28;20021;-81
2023/12/09 04:52:23;;;;;;;9.27;2.33;;;;;;;5.59;79.08;100238.69;5049367;28;20025;-81
2023/12/09 04:54:49;;;;;;;13.20;2.47;;;;;;;5.57;79.37;100240.41;5049180;28;20021;-81
2023/12/09 04:57:14;;;;;;;9.07;2.35;;;;;;;5.55;79.13;100247.34;5064668;28;20074;-81
2023/12/09 04:59:40;;;;;;;10.37;2.10;;;;;;;5.54;79.08;100256.03;5048772;28;20033;-81
2023/12/09 05:02:05;;;;;;;9.25;2.17;;;;;;;5.55;79.50;100252.56;5049016;28;20021;-81
2023/12/09 05:04:31;;;;;;;12.23;2.40;;;;;;;5.54;79.50;100242.97;5048974;28;20473;-81
2023/12/09 05:06:56;;;;;;;9.80;1.57;;;;;;;5.51;79.77;100235.94;5048958;28;20033;-81
2023/12/09 05:09:22;;;;;;;10.37;1.70;;;;;;;5.53;80.48;100235.97;5046961;28;20572;-81
2023/12/09 05:11:48;;;;;;;7.72;2.15;;;;;;;5.56;79.52;100249.09;5048856;28;20108;-81
2023/12/09 05:14:13;;;;;;;9.18;1.90;;;;;;;5.57;80.00;100232.56;5048360;28;20104;-81
2023/12/09 05:16:39;;;;;;;9.93;1.80;;;;;;;5.57;79.64;100227.34;5048848;28;20060;-81
2023/12/09 05:19:06;;;;;;;12.97;2.50;;;;;;;5.53;80.42;100235.97;5048841;28;20025;-81
2023/12/09 05:21:31;;;;;;;7.55;1.70;;;;;;;5.55;80.58;100226.44;5048457;28;20054;-81
2023/12/09 05:23:57;;;;;;;7.73;1.70;;;;;;;5.53;80.18;100221.19;5048755;28;20112;-81
2023/12/09 05:26:27;;;;;;;8.57;1.98;;;;;;;5.54;80.19;100215.09;5040330;28;20045;-81
2023/12/09 05:28:54;;;;;;;9.80;1.65;;;;;;;5.53;80.34;100212.47;5032320;28;20049;-81
2023/12/09 05:31:21;;;;;;;9.93;1.80;;;;;;;5.52;80.43;100211.59;5034883;28;20021;-81
2023/12/09 05:33:46;;;;;;;11.55;1.80;;;;;;;5.52;81.09;100221.16;5052441;28;20112;-81
2023/12/09 05:36:12;;;;;;;8.15;1.63;;;;;;;5.49;81.13;100226.34;5052364;28;20167;-80
2023/12/09 05:38:38;;;;;;;10.47;2.03;;;;;;;5.50;81.01;100217.66;5050629;28;20032;-80
2023/12/09 05:41:04;;;;;;;5.65;1.75;;;;;;;5.51;81.28;100212.44;5052289;28;20017;-80
2023/12/09 05:43:29;;;;;;;8.53;1.50;;;;;;;5.51;80.69;100215.06;5051939;28;20035;-80
2023/12/09 05:45:55;;;;;;;7.10;1.70;;;;;;;5.53;81.12;100209.88;5052376;28;20029;-80
2023/12/09 05:48:20;;;;;;;11.60;2.23;;;;;;;5.52;81.29;100208.97;5052285;28;20495;-80
2023/12/09 05:50:46;;;;;;;7.33;1.60;;;;;;;5.52;80.41;100206.34;5052530;28;20400;-80
2023/12/09 05:53:11;;;;;;;5.65;1.30;;;;;;;5.53;81.19;100202.03;5052406;28;20021;-80
2023/12/09 05:55:37;;;;;;;9.00;2.03;;;;;;;5.50;81.34;100200.22;5051977;28;20028;-80
2023/12/09 05:58:03;;;;;;;10.70;1.90;;;;;;;5.52;80.92;100198.53;5052098;28;20024;-80
2023/12/09 06:00:29;;;;;;;9.63;1.40;;;;;;;5.52;80.93;100201.13;5051699;28;20035;-80
2023/12/09 06:02:54;;;;;;;7.50;1.50;;;;;;;5.54;80.85;100198.56;5052378;28;20032;-80
2023/12/09 06:05:20;;;;;;;9.87;1.57;;;;;;;5.51;80.95;100177.63;5049269;28;20021;-80
2023/12/09 06:07:45;;;;;;;10.13;1.80;;;;;;;5.53;80.69;100176.78;5052086;28;20025;-80
2023/12/09 06:10:11;;;;;;;6.77;1.50;;;;;;;5.55;81.14;100164.66;5052295;28;20029;-80
2023/12/09 06:12:36;;;;;;;11.55;2.10;;;;;;;5.59;81.03;100168.16;5051768;28;20090;-80
2023/12/09 06:15:01;;;;;;;9.40;2.03;;;;;;;5.63;81.32;100161.25;5051273;28;20048;-80
2023/12/09 06:17:27;;;;;;;10.50;1.63;;;;;;;5.66;80.43;100161.28;5051502;28;20032;-80
2023/12/09 06:19:53;;;;;;;8.20;2.10;;;;;;;5.64;80.59;100153.41;5051431;28;20028;-80
2023/12/09 06:22:18;;;;;;;8.60;1.60;;;;;;;5.67;80.12;100165.66;5045206;28;20272;-80
2023/12/09 06:24:44;;;;;;;10.27;1.90;;;;;;;5.70;80.76;100165.69;5031437;28;20205;-80
2023/12/09 06:27:10;;;;;;;10.13;2.85;;;;;;;5.68;80.43;100165.69;5051112;28;20489;-80
2023/12/09 06:29:35;;;;;;;11.17;3.03;;;;;;;5.72;80.62;100177.06;5050976;28;20037;-82
2023/12/09 06:32:01;;;;;;;9.32;2.70;;;;;;;5.74;80.32;100177.94;5051442;28;20501;-81
2023/12/09 06:34:26;;;;;;;11.70;2.87;;;;;;;5.73;80.79;100174.47;5051382;28;20443;-81
2023/12/09 06:36:51;;;;;;;7.47;2.40;;;;;;;5.70;80.57;100161.38;5051434;28;20029;-81
2023/12/09 06:39:17;;;;;;;9.27;2.90;;;;;;;5.70;80.56;100169.22;5050038;28;20416;-81
2023/12/09 06:41:42;;;;;;;9.13;2.60;;;;;;;5.70;80.98;100158.75;5051326;28;20035;-81
2023/12/09 06:44:08;;;;;;;10.47;2.80;;;;;;;5.70;80.98;100169.22;5051051;28;20021;-81
2023/12/09 06:46:37;;;;;;;9.80;2.60;;;;;;;5.69;80.69;100171.78;5051156;28;20032;-81
2023/12/09 06:49:02;;;;;;;11.70;2.92;;;;;;;5.68;80.89;100168.31;5051142;28;20025;-81
2023/12/09 06:51:28;;;;;;;11.27;2.60;;;;;;;5.67;81.54;100168.28;5051243;28;20366;-81
2023/12/09 06:53:53;;;;;;;6.97;2.30;;;;;;;5.66;80.66;100175.22;5051229;28;20017;-81
2023/12/09 06:56:20;;;;;;;8.97;2.90;;;;;;;5.68;81.23;100186.59;5051133;28;20260;-81
2023/12/09 06:58:45;;;;;;;9.57;2.45;;;;;;;5.67;80.25;100182.22;5050503;28;20036;-82
2023/12/09 07:01:24;;;;;;;10.53;2.80;;;;;;;5.69;81.05;100190.97;5050912;28;20052;-81
2023/12/09 07:03:50;;;;;;;13.02;2.88;;;;;;;5.69;81.03;100177.91;5049998;28;20512;-81
2023/12/09 07:06:24;;;;;;;9.07;2.40;;;;;;;5.72;81.20;100183.16;5050781;28;20120;-81
2023/12/09 07:08:50;;;;;;;12.03;2.47;;;;;;;5.74;80.89;100184.06;5051030;28;20489;-81
2023/12/09 07:11:17;;;;;;;10.60;2.90;;;;;;;5.75;81.06;100172.75;5051013;28;20040;-81
2023/12/09 07:13:43;;;;;;;9.20;2.58;;;;;;;5.77;80.51;100175.38;5050282;28;20033;-81
2023/12/09 07:16:10;;;;;;;12.40;2.67;;;;;;;5.79;80.58;100171.06;5050234;28;20051;-81
2023/12/09 07:18:37;;;;;;;10.50;2.53;;;;;;;5.81;81.30;100171.06;5044058;28;20095;-80
2023/12/09 07:21:02;;;;;;;11.35;2.70;;;;;;;5.85;80.81;100162.41;5030534;28;20082;-81
2023/12/09 07:23:28;;;;;;;9.82;2.33;;;;;;;5.86;80.44;100174.63;5030480;28;20072;-81
2023/12/09 07:25:55;;;;;;;8.03;2.00;;;;;;;5.87;80.56;100177.28;5049253;28;20048;-81
2023/12/09 07:28:20;;;;;;;13.82;4.50;;;;;;;5.91;81.19;100180.81;5050166;28;20025;-81
2023/12/09 07:30:46;;;;;;;11.80;3.70;;;;;;;5.92;80.67;100164.28;5050366;28;20032;-81
2023/12/09 07:33:11;;;;;;;8.93;3.03;;;;;;;5.94;80.00;100167.78;5050502;28;20426;-81
2023/12/09 07:35:36;;;;;;;9.47;3.67;;;;;;;5.97;80.10;100151.25;5050337;28;20256;-81
2023/12/09 07:38:03;;;;;;;12.13;6.40;;;;;;;6.00;80.28;100148.66;5050433;28;20448;-81
2023/12/09 07:40:28;;;;;;;10.67;3.70;;;;;;;6.05;80.08;100159.22;5049854;28;20503;-81
2023/12/09 07:42:53;;;;;;;11.00;3.20;;;;;;;6.08;80.79;100164.50;5048998;28;20021;-81
2023/12/09 07:45:19;;;;;;;7.90;1.90;;;;;;;6.11;79.83;100157.56;5049672;28;20098;-81
2023/12/09 07:47:44;;;;;;;9.00;1.90;;;;;;;6.13;80.11;100157.56;5050189;28;20059;-81
2023/12/09 07:50:10;;;;;;;7.03;2.00;;;;;;;6.13;79.51;100152.34;5050056;28;20477;-81
2023/12/09 07:52:35;;;;;;;6.65;2.13;;;;;;;6.15;79.82;100161.13;5050527;28;20032;-81
2023/12/09 07:55:01;;;;;;;9.83;2.50;;;;;;;6.15;80.08;100156.75;5050334;28;20148;-81
2023/12/09 07:57:26;;;;;;;11.50;2.47;;;;;;;6.15;80.19;100148.03;5049606;28;20044;-81
2023/12/09 07:59:51;;;;;;;7.27;2.77;;;;;;;6.16;80.14;100134.13;5047046;28;20055;-81
2023/12/09 08:02:17;;;;;;;7.95;2.17;;;;;;;6.17;80.42;100136.72;5048693;28;20111;-81
2023/12/09 08:04:42;;;;;;;10.13;2.27;;;;;;;6.20;80.16;100138.50;5047251;28;20469;-81
2023/12/09 08:07:07;;;;;;;12.00;2.27;;;;;;;6.22;80.23;100147.25;5047802;28;20028;-81
2023/12/09 08:09:33;;;;;;;15.93;3.30;;;;;;;6.24;79.78;100149.88;5048808;28;20036;-81
2023/12/09 08:11:58;;;;;;;13.70;4.57;;;;;;;6.27;79.88;100142.94;5049756;28;20096;-81
2023/12/09 08:14:24;;;;;;;13.23;3.60;;;;;;;6.29;79.98;100130.75;5046195;28;20033;-81
2023/12/09 08:16:56;;;;;;;12.40;3.40;;;;;;;6.31;80.25;100128.19;5032198;28;20025;-81
2023/12/09 08:19:21;;;;;;;8.90;2.80;;;;;;;6.32;80.16;100122.94;5049293;28;20025;-80
2023/12/09 08:21:47;;;;;;;10.57;3.00;;;;;;;6.34;80.28;100124.69;5047983;28;20519;-79
2023/12/09 08:24:12;;;;;;;12.20;3.03;;;;;;;6.34;80.46;100128.22;5043439;28;20031;-79
2023/12/09 08:26:39;;;;;;;12.13;2.90;;;;;;;6.36;80.45;100149.13;5048769;28;20154;-79
2023/12/09 08:29:04;;;;;;;8.13;2.80;;;;;;;6.41;79.81;100150.94;5048944;28;20035;-79
2023/12/09 08:31:30;;;;;;;10.80;2.70;;;;;;;6.47;79.97;100142.28;5048598;28;20112;-80
2023/12/09 08:33:56;;;;;;;11.57;3.10;;;;;;;6.53;79.96;100152.81;5047449;28;20021;-80
2023/12/09 08:36:22;;;;;;;10.60;3.03;;;;;;;6.56;80.05;100146.75;5048412;28;20029;-79
2023/12/09 08:38:47;;;;;;;7.37;2.33;;;;;;;6.61;79.62;100153.75;5048428;28;20033;-79
2023/12/09 08:41:12;;;;;;;11.37;2.50;;;;;;;6.65;79.91;100148.59;5048727;28;20032;-79
2023/12/09 08:43:38;;;;;;;8.90;2.23;;;;;;;6.71;79.95;100151.25;5048174;28;20025;-79
2023/12/09 08:46:03;;;;;;;10.23;2.63;;;;;;;6.75;79.66;100158.28;5046982;28;20287;-80
2023/12/09 08:48:29;;;;;;;12.47;2.23;;;;;;;6.78;79.45;100154.81;5047625;28;20029;-79
2023/12/09 08:50:54;;;;;;;10.57;2.43;;;;;;;6.78;79.43;100155.69;5047926;28;20063;-79
2023/12/09 08:53:19;;;;;;;9.70;2.10;;;;;;;6.81;79.42;100158.31;5040495;28;20279;-79
2023/12/09 08:55:45;;;;;;;6.73;2.50;;;;;;;6.82;79.69;100165.31;5044572;28;20035;-80
2023/12/09 08:58:10;;;;;;;9.10;2.10;;;;;;;6.83;79.59;100172.31;5047833;28;20024;-80
2023/12/09 09:00:36;;;;;;;7.30;2.40;;;;;;;6.84;79.66;100163.59;5047847;28;20086;-80
2023/12/09 09:03:03;;;;;;;8.18;2.30;;;;;;;6.87;80.16;100167.97;5051717;28;20100;-79
2023/12/09 09:05:28;;;;;;;7.00;1.90;;;;;;;6.88;79.80;100162.78;5050703;28;20036;-79
2023/12/09 09:07:55;;;;;;;11.38;2.50;;;;;;;6.91;79.67;100168.91;5048951;28;20033;-80
2023/12/09 09:10:22;;;;;;;11.27;2.55;;;;;;;6.94;80.16;100169.78;5051346;28;20103;-79
2023/12/09 09:12:48;;;;;;;12.13;2.87;;;;;;;6.97;80.11;100168.94;5048114;28;20606;-79
2023/12/09 09:15:15;;;;;;;8.45;2.92;;;;;;;6.99;79.68;100168.09;5052679;28;20020;-85
2023/12/09 09:17:40;;;;;;;11.60;3.13;;;;;;;7.02;80.24;100162.00;5052263;28;20029;-81
2023/12/09 09:20:06;;;;;;;19.30;3.80;;;;;;;7.06;79.75;100169.03;5053138;28;20595;-80
2023/12/09 09:22:32;;;;;;;9.15;2.90;;;;;;;7.10;79.78;100164.69;5041386;28;20112;-82
2023/12/09 09:24:58;;;;;;;9.27;2.63;;;;;;;7.10;80.14;100152.47;5034033;28;20120;-80
2023/12/09 09:27:24;;;;;;;10.82;3.38;;;;;;;7.17;79.74;100150.78;5052951;28;20033;-83
2023/12/09 09:29:49;;;;;;;18.60;7.83;;;;;;;7.22;79.79;100138.59;5051926;28;20417;-82
2023/12/09 09:32:16;;;;;;;27.20;12.07;;;;;;;7.31;79.93;100135.16;5052579;28;20032;-81
2023/12/09 09:34:41;;;;;;;17.48;7.70;;;;;;;7.42;79.93;100135.25;5052717;28;20029;-82
2023/12/09 09:37:08;;;;;;;17.60;7.57;;;;;;;7.55;79.65;100136.19;5052337;28;20024;-81
2023/12/09 09:39:33;;;;;;;13.43;6.55;;;;;;;7.68;79.59;100122.31;5051462;28;20409;-79
2023/12/09 09:42:01;;;;;;;13.67;5.47;;;;;;;7.83;79.26;100125.88;5052239;28;20037;-80
2023/12/09 09:44:28;;;;;;;9.63;3.33;;;;;;;7.91;79.25;100129.41;5052558;28;20021;-82
2023/12/09 09:46:58;;;;;;;14.75;3.13;;;;;;;8.01;78.58;100125.94;5052375;28;20033;-81
2023/12/09 09:49:29;;;;;;;10.20;3.13;;;;;;;8.06;78.65;100118.13;5051154;28;20040;-81
2023/12/09 09:51:57;;;;;;;11.93;4.00;;;;;;;8.09;78.51;100122.50;5047400;28;21475;-81
2023/12/09 09:54:29;;;;;;;14.20;6.37;;;;;;;8.08;78.95;100110.22;5051362;28;20037;-80
2023/12/09 09:56:57;;;;;;;14.10;4.35;;;;;;;8.08;78.80;100086.63;5050127;28;20028;-82
2023/12/09 09:59:23;;;;;;;8.70;2.65;;;;;;;8.07;79.02;100082.25;5049855;28;20083;-76
2023/12/09 10:01:49;;;;;;;9.83;2.70;;;;;;;8.10;78.81;100090.16;5050294;28;20568;-77
2023/12/09 10:04:15;;;;;;;7.47;3.08;;;;;;;8.14;79.02;100081.44;5051272;28;20087;-77
2023/12/09 10:06:42;;;;;;;9.87;2.37;;;;;;;8.16;78.73;100082.31;5050780;28;20473;-77
2023/12/09 10:09:07;;;;;;;8.05;2.67;;;;;;;8.19;78.79;100077.06;5051176;28;20045;-78
2023/12/09 10:11:33;;;;;;;10.65;2.72;;;;;;;8.22;78.76;100077.06;5051088;28;20052;-78
2023/12/09 10:13:58;;;;;;;11.43;3.03;;;;;;;8.26;78.59;100078.81;5049097;28;20576;-79
2023/12/09 10:16:23;;;;;;;11.70;3.40;;;;;;;8.32;78.63;100077.97;5050759;28;20032;-79
2023/12/09 10:18:57;;;;;;;15.80;3.20;;;;;;;8.37;78.62;100081.47;5051593;28;20025;-79
2023/12/09 10:21:23;;;;;;;11.60;3.03;;;;;;;8.42;78.97;100084.13;5051705;28;20029;-76
2023/12/09 10:23:48;;;;;;;7.90;2.50;;;;;;;8.46;78.67;100070.13;5050317;28;20475;-81
2023/12/09 10:26:14;;;;;;;9.37;2.43;;;;;;;8.50;78.49;100071.03;5052901;28;20044;-81
2023/12/09 10:28:40;;;;;;;11.47;3.37;;;;;;;8.46;78.67;100075.38;5049185;28;20700;-79
2023/12/09 10:31:07;;;;;;;8.43;2.58;;;;;;;8.47;78.67;100066.63;5050812;28;20040;-79
2023/12/09 10:33:34;;;;;;;9.40;2.22;;;;;;;8.48;79.00;100068.38;5050273;28;20113;-78
2023/12/09 10:36:00;;;;;;;9.75;2.42;;;;;;;8.49;78.80;100067.50;5051446;28;20058;-78
2023/12/09 10:38:26;;;;;;;9.80;2.53;;;;;;;8.52;78.77;100070.16;5051335;28;20039;-79
2023/12/09 10:40:53;;;;;;;6.55;2.22;;;;;;;8.55;78.82;100054.41;5050921;28;20405;-79
2023/12/09 10:43:19;;;;;;;7.45;2.35;;;;;;;8.57;78.74;100052.69;5050435;28;20094;-79
2023/12/09 10:45:45;;;;;;;8.18;2.20;;;;;;;8.59;78.67;100055.28;5049625;28;20602;-79
2023/12/09 10:48:10;;;;;;;7.67;2.17;;;;;;;8.63;78.65;100058.81;5047472;28;20057;-80
2023/12/09 10:50:37;;;;;;;9.53;2.20;;;;;;;8.66;78.55;100056.19;5050754;28;20121;-79
2023/12/09 10:53:02;;;;;;;12.00;3.00;;;;;;;8.70;79.22;100056.19;5050123;28;20013;-78
2023/12/09 10:55:28;;;;;;;9.17;2.20;;;;;;;8.76;78.48;100052.66;5049524;28;20024;-79
2023/12/09 10:57:54;;;;;;;10.53;2.50;;;;;;;8.77;78.50;100057.03;5050140;28;20025;-79
2023/12/09 11:00:21;;;;;;;10.82;2.25;;;;;;;8.86;78.36;100071.91;5049731;28;20074;-79
2023/12/09 11:02:47;;;;;;;6.57;2.10;;;;;;;8.90;78.54;100090.31;5051025;28;20037;-79
2023/12/09 11:05:14;;;;;;;10.13;2.55;;;;;;;8.96;78.45;100084.19;5030960;28;20061;-80
2023/12/09 11:07:41;;;;;;;9.55;3.30;;;;;;;9.05;78.72;100075.44;5030732;28;20064;-79
2023/12/09 11:10:08;;;;;;;9.80;3.10;;;;;;;9.12;78.49;100061.41;5043482;28;20033;-79
2023/12/09 11:12:35;;;;;;;8.63;2.40;;;;;;;9.19;78.36;100042.13;5050927;28;20512;-79
2023/12/09 11:15:12;;;;;;;8.90;2.15;;;;;;;9.27;78.11;100038.59;5050432;28;20032;-79
2023/12/09 11:17:40;;;;;;;7.95;2.33;;;;;;;9.36;78.28;100030.72;5050392;28;20262;-79
2023/12/09 11:20:13;;;;;;;11.07;2.80;;;;;;;9.45;77.88;100027.19;5048221;28;20075;-78
2023/12/09 11:22:40;;;;;;;12.50;2.50;;;;;;;9.51;78.08;100021.00;5031212;28;20053;-79
2023/12/09 11:25:07;;;;;;;7.60;2.42;;;;;;;9.54;77.74;100026.28;5030786;28;20107;-79